sensor_id;sensor_type;location;lat;lon;timestamp;temperature;humidity
18337;DHT22;9294;51.106;7.028;2023-11-21T00:02:26;20.60;99.90
18337;DHT22;9294;51.106;7.028;2023-11-21T00:04:53;20.50;99.90
18337;DHT22;9294;51.106;7.028;2023-11-21T00:07:20;20.60;99.90
18337;DHT22;9294;51.106;7.028;2023-11-21T00:09:47;20.50;99.90
18337;DHT22;9294;51.106;7.028;2023-11-21T00:12:13;20.50;99.90
18337;DHT22;9294;51.106;7.028;2023-11-21T00:14:40;20.50;99.90
18337;DHT22;9294;51.106;7.028;2023-11-21T00:17:07;20.50;99.90
18337;DHT22;9294;51.106;7.028;2023-11-21T00:19:35;20.50;99.90
18337;DHT22;9294;51.106;7.028;2023-11-21T00:22:02;20.50;99.90
18337;DHT22;9294;51.106;7.028;2023-11-21T00:24:29;20.50;99.90
18337;DHT22;9294;51.106;7.028;2023-11-21T00:26:57;20.50;99.90
18337;DHT22;9294;51.106;7.028;2023-11-21T00:29:24;20.50;99.90
18337;DHT22;9294;51.106;7.028;2023-11-21T00:31:52;20.50;99.90
18337;DHT22;9294;51.106;7.028;2023-11-21T00:34:18;20.50;99.90
18337;DHT22;9294;51.106;7.028;2023-11-21T00:36:46;20.50;99.90
18337;DHT22;9294;51.106;7.028;2023-11-21T00:39:13;20.50;99.90
18337;DHT22;9294;51.106;7.028;2023-11-21T00:41:40;20.50;99.90
18337;DHT22;9294;51.106;7.028;2023-11-21T00:44:07;20.50;99.90
18337;DHT22;9294;51.106;7.028;2023-11-21T00:46:34;20.50;99.90
18337;DHT22;9294;51.106;7.028;2023-11-21T00:49:00;20.50;99.90
18337;DHT22;9294;51.106;7.028;2023-11-21T00:51:29;20.40;99.90
18337;DHT22;9294;51.106;7.028;2023-11-21T00:53:57;20.50;99.90
18337;DHT22;9294;51.106;7.028;2023-11-21T00:56:24;20.50;99.90
18337;DHT22;9294;51.106;7.028;2023-11-21T00:58:51;20.50;99.90
18337;DHT22;9294;51.106;7.028;2023-11-21T01:01:18;20.40;99.90
18337;DHT22;9294;51.106;7.028;2023-11-21T01:03:46;20.40;99.90
18337;DHT22;9294;51.106;7.028;2023-11-21T01:06:12;20.50;99.90
18337;DHT22;9294;51.106;7.028;2023-11-21T01:08:40;20.40;99.90
18337;DHT22;9294;51.106;7.028;2023-11-21T01:11:08;20.40;99.90
18337;DHT22;9294;51.106;7.028;2023-11-21T01:13:37;20.40;99.90
18337;DHT22;9294;51.106;7.028;2023-11-21T01:16:05;20.40;99.90
18337;DHT22;9294;51.106;7.028;2023-11-21T01:18:32;20.40;99.90
18337;DHT22;9294;51.106;7.028;2023-11-21T01:21:00;20.40;99.90
18337;DHT22;9294;51.106;7.028;2023-11-21T01:23:27;20.40;99.90
18337;DHT22;9294;51.106;7.028;2023-11-21T01:25:56;20.40;99.90
18337;DHT22;9294;51.106;7.028;2023-11-21T01:28:24;20.40;99.90
18337;DHT22;9294;51.106;7.028;2023-11-21T01:30:51;20.40;99.90
18337;DHT22;9294;51.106;7.028;2023-11-21T01:33:21;20.40;99.90
18337;DHT22;9294;51.106;7.028;2023-11-21T01:35:50;20.40;99.90
18337;DHT22;9294;51.106;7.028;2023-11-21T01:38:18;20.40;99.90
18337;DHT22;9294;51.106;7.028;2023-11-21T01:40:45;20.40;99.90
18337;DHT22;9294;51.106;7.028;2023-11-21T01:43:11;20.40;99.90
18337;DHT22;9294;51.106;7.028;2023-11-21T01:45:40;20.40;99.90
18337;DHT22;9294;51.106;7.028;2023-11-21T01:48:06;20.40;99.90
18337;DHT22;9294;51.106;7.028;2023-11-21T01:50:33;20.30;99.90
18337;DHT22;9294;51.106;7.028;2023-11-21T01:53:00;20.30;99.90
18337;DHT22;9294;51.106;7.028;2023-11-21T01:55:28;20.30;99.90
18337;DHT22;9294;51.106;7.028;2023-11-21T01:57:56;20.30;99.90
18337;DHT22;9294;51.106;7.028;2023-11-21T02:00:23;20.30;99.90
18337;DHT22;9294;51.106;7.028;2023-11-21T02:02:52;20.30;99.90
18337;DHT22;9294;51.106;7.028;2023-11-21T02:05:19;20.30;99.90
18337;DHT22;9294;51.106;7.028;2023-11-21T02:07:47;20.30;99.90
18337;DHT22;9294;51.106;7.028;2023-11-21T02:10:15;20.30;99.90
18337;DHT22;9294;51.106;7.028;2023-11-21T02:12:42;20.30;99.90
18337;DHT22;9294;51.106;7.028;2023-11-21T02:15:10;20.30;99.90
18337;DHT22;9294;51.106;7.028;2023-11-21T02:17:41;20.30;99.90
18337;DHT22;9294;51.106;7.028;2023-11-21T02:20:11;20.30;99.90
18337;DHT22;9294;51.106;7.028;2023-11-21T02:22:41;20.30;99.90
18337;DHT22;9294;51.106;7.028;2023-11-21T02:25:09;20.30;99.90
18337;DHT22;9294;51.106;7.028;2023-11-21T02:27:36;20.20;99.90
18337;DHT22;9294;51.106;7.028;2023-11-21T02:30:04;20.20;99.90
18337;DHT22;9294;51.106;7.028;2023-11-21T02:32:33;20.20;99.90
18337;DHT22;9294;51.106;7.028;2023-11-21T02:34:59;20.20;99.90
18337;DHT22;9294;51.106;7.028;2023-11-21T02:37:28;20.20;99.90
18337;DHT22;9294;51.106;7.028;2023-11-21T02:39:55;20.20;99.90
18337;DHT22;9294;51.106;7.028;2023-11-21T02:42:23;20.20;99.90
18337;DHT22;9294;51.106;7.028;2023-11-21T02:44:50;20.20;99.90
18337;DHT22;9294;51.106;7.028;2023-11-21T02:47:17;20.20;99.90
18337;DHT22;9294;51.106;7.028;2023-11-21T02:49:43;20.20;99.90
18337;DHT22;9294;51.106;7.028;2023-11-21T02:52:10;20.20;99.90
18337;DHT22;9294;51.106;7.028;2023-11-21T02:54:37;20.20;99.90
18337;DHT22;9294;51.106;7.028;2023-11-21T02:57:04;20.20;99.90
18337;DHT22;9294;51.106;7.028;2023-11-21T02:59:32;20.20;99.90
18337;DHT22;9294;51.106;7.028;2023-11-21T03:01:59;20.20;99.90
18337;DHT22;9294;51.106;7.028;2023-11-21T03:04:25;20.20;99.90
18337;DHT22;9294;51.106;7.028;2023-11-21T03:06:52;20.10;99.90
18337;DHT22;9294;51.106;7.028;2023-11-21T03:09:19;20.20;99.90
18337;DHT22;9294;51.106;7.028;2023-11-21T03:11:45;20.20;99.90
18337;DHT22;9294;51.106;7.028;2023-11-21T03:14:12;20.10;99.90
18337;DHT22;9294;51.106;7.028;2023-11-21T03:16:40;20.10;99.90
18337;DHT22;9294;51.106;7.028;2023-11-21T03:19:07;20.10;99.90
18337;DHT22;9294;51.106;7.028;2023-11-21T03:21:34;20.10;99.90
18337;DHT22;9294;51.106;7.028;2023-11-21T03:24:01;20.10;99.90
18337;DHT22;9294;51.106;7.028;2023-11-21T03:26:28;20.10;99.90
18337;DHT22;9294;51.106;7.028;2023-11-21T03:28:55;20.10;99.90
18337;DHT22;9294;51.106;7.028;2023-11-21T03:31:21;20.10;99.90
18337;DHT22;9294;51.106;7.028;2023-11-21T03:33:50;20.10;99.90
18337;DHT22;9294;51.106;7.028;2023-11-21T03:36:18;20.10;99.90
18337;DHT22;9294;51.106;7.028;2023-11-21T03:38:44;20.10;99.90
18337;DHT22;9294;51.106;7.028;2023-11-21T03:41:11;20.10;99.90
18337;DHT22;9294;51.106;7.028;2023-11-21T03:43:38;20.10;99.90
18337;DHT22;9294;51.106;7.028;2023-11-21T03:46:05;20.10;99.90
18337;DHT22;9294;51.106;7.028;2023-11-21T03:48:32;20.10;99.90
18337;DHT22;9294;51.106;7.028;2023-11-21T03:51:00;20.10;99.90
18337;DHT22;9294;51.106;7.028;2023-11-21T03:53:27;20.10;99.90
18337;DHT22;9294;51.106;7.028;2023-11-21T03:55:54;20.10;99.90
18337;DHT22;9294;51.106;7.028;2023-11-21T03:58:20;20.10;99.90
18337;DHT22;9294;51.106;7.028;2023-11-21T04:00:47;20.00;99.90
18337;DHT22;9294;51.106;7.028;2023-11-21T04:03:14;20.10;99.90
18337;DHT22;9294;51.106;7.028;2023-11-21T04:05:41;20.00;99.90
18337;DHT22;9294;51.106;7.028;2023-11-21T04:08:09;20.00;99.90
18337;DHT22;9294;51.106;7.028;2023-11-21T04:10:36;20.00;99.90
18337;DHT22;9294;51.106;7.028;2023-11-21T04:13:04;20.00;99.90
18337;DHT22;9294;51.106;7.028;2023-11-21T04:15:32;20.00;99.90
18337;DHT22;9294;51.106;7.028;2023-11-21T04:17:58;20.00;99.90
18337;DHT22;9294;51.106;7.028;2023-11-21T04:20:25;20.00;99.90
18337;DHT22;9294;51.106;7.028;2023-11-21T04:22:52;20.00;99.90
18337;DHT22;9294;51.106;7.028;2023-11-21T04:25:20;20.00;99.90
18337;DHT22;9294;51.106;7.028;2023-11-21T04:27:48;20.00;99.90
18337;DHT22;9294;51.106;7.028;2023-11-21T04:30:15;20.00;99.90
18337;DHT22;9294;51.106;7.028;2023-11-21T04:32:42;20.00;99.90
18337;DHT22;9294;51.106;7.028;2023-11-21T04:35:09;20.00;99.90
18337;DHT22;9294;51.106;7.028;2023-11-21T04:37:36;20.00;99.90
18337;DHT22;9294;51.106;7.028;2023-11-21T04:40:03;20.00;99.90
18337;DHT22;9294;51.106;7.028;2023-11-21T04:42:34;20.00;99.90
18337;DHT22;9294;51.106;7.028;2023-11-21T04:45:01;20.00;99.90
18337;DHT22;9294;51.106;7.028;2023-11-21T04:47:30;20.00;99.90
18337;DHT22;9294;51.106;7.028;2023-11-21T04:49:57;20.00;99.90
18337;DHT22;9294;51.106;7.028;2023-11-21T04:52:23;20.00;99.90
18337;DHT22;9294;51.106;7.028;2023-11-21T04:54:50;20.00;99.90
18337;DHT22;9294;51.106;7.028;2023-11-21T04:57:19;20.00;99.90
18337;DHT22;9294;51.106;7.028;2023-11-21T04:59:48;20.10;99.90
18337;DHT22;9294;51.106;7.028;2023-11-21T05:02:15;20.10;99.90
18337;DHT22;9294;51.106;7.028;2023-11-21T05:04:44;20.20;99.90
18337;DHT22;9294;51.106;7.028;2023-11-21T05:07:11;20.30;99.90
18337;DHT22;9294;51.106;7.028;2023-11-21T05:09:41;20.40;99.90
18337;DHT22;9294;51.106;7.028;2023-11-21T05:12:09;20.50;99.90
18337;DHT22;9294;51.106;7.028;2023-11-21T05:14:36;20.60;99.90
18337;DHT22;9294;51.106;7.028;2023-11-21T05:17:04;20.70;99.90
18337;DHT22;9294;51.106;7.028;2023-11-21T05:19:31;20.70;99.90
18337;DHT22;9294;51.106;7.028;2023-11-21T05:21:58;20.80;99.90
18337;DHT22;9294;51.106;7.028;2023-11-21T05:24:26;20.90;99.90
18337;DHT22;9294;51.106;7.028;2023-11-21T05:26:52;20.90;99.90
18337;DHT22;9294;51.106;7.028;2023-11-21T05:29:19;20.90;99.90
18337;DHT22;9294;51.106;7.028;2023-11-21T05:31:46;21.00;99.70
18337;DHT22;9294;51.106;7.028;2023-11-21T05:34:14;21.10;99.40
18337;DHT22;9294;51.106;7.028;2023-11-21T05:36:43;21.10;99.30
18337;DHT22;9294;51.106;7.028;2023-11-21T05:39:09;21.00;99.70
18337;DHT22;9294;51.106;7.028;2023-11-21T05:41:36;21.00;99.90
18337;DHT22;9294;51.106;7.028;2023-11-21T05:44:03;21.10;99.90
18337;DHT22;9294;51.106;7.028;2023-11-21T05:46:30;21.10;99.50
18337;DHT22;9294;51.106;7.028;2023-11-21T05:48:57;21.10;99.30
18337;DHT22;9294;51.106;7.028;2023-11-21T05:51:25;21.10;99.10
18337;DHT22;9294;51.106;7.028;2023-11-21T05:53:51;21.10;98.90
18337;DHT22;9294;51.106;7.028;2023-11-21T05:56:18;21.20;98.80
18337;DHT22;9294;51.106;7.028;2023-11-21T05:58:45;21.10;98.70
18337;DHT22;9294;51.106;7.028;2023-11-21T06:01:11;21.20;98.70
18337;DHT22;9294;51.106;7.028;2023-11-21T06:03:38;21.20;98.50
18337;DHT22;9294;51.106;7.028;2023-11-21T06:06:05;21.20;98.50
18337;DHT22;9294;51.106;7.028;2023-11-21T06:08:33;21.20;98.30
18337;DHT22;9294;51.106;7.028;2023-11-21T06:11:00;21.20;98.40
18337;DHT22;9294;51.106;7.028;2023-11-21T06:13:27;21.20;98.30
18337;DHT22;9294;51.106;7.028;2023-11-21T06:15:54;21.10;98.20
18337;DHT22;9294;51.106;7.028;2023-11-21T06:18:20;21.10;98.20
18337;DHT22;9294;51.106;7.028;2023-11-21T06:20:47;21.00;98.50
18337;DHT22;9294;51.106;7.028;2023-11-21T06:23:14;21.00;98.40
18337;DHT22;9294;51.106;7.028;2023-11-21T06:25:43;21.00;98.40
18337;DHT22;9294;51.106;7.028;2023-11-21T06:28:10;21.00;98.50
18337;DHT22;9294;51.106;7.028;2023-11-21T06:30:36;21.00;99.10
18337;DHT22;9294;51.106;7.028;2023-11-21T06:33:03;21.00;99.50
18337;DHT22;9294;51.106;7.028;2023-11-21T06:35:31;21.10;99.90
18337;DHT22;9294;51.106;7.028;2023-11-21T06:38:00;21.10;99.90
18337;DHT22;9294;51.106;7.028;2023-11-21T06:40:27;21.10;99.90
18337;DHT22;9294;51.106;7.028;2023-11-21T06:42:55;21.10;99.90
18337;DHT22;9294;51.106;7.028;2023-11-21T06:45:24;21.10;99.90
18337;DHT22;9294;51.106;7.028;2023-11-21T06:47:50;21.10;99.90
18337;DHT22;9294;51.106;7.028;2023-11-21T06:50:17;21.10;99.90
18337;DHT22;9294;51.106;7.028;2023-11-21T06:52:44;21.00;99.90
18337;DHT22;9294;51.106;7.028;2023-11-21T06:55:11;21.00;99.90
18337;DHT22;9294;51.106;7.028;2023-11-21T06:57:38;21.00;99.90
18337;DHT22;9294;51.106;7.028;2023-11-21T07:00:07;21.00;99.90
18337;DHT22;9294;51.106;7.028;2023-11-21T07:02:34;20.90;99.90
18337;DHT22;9294;51.106;7.028;2023-11-21T07:05:01;21.00;99.90
18337;DHT22;9294;51.106;7.028;2023-11-21T07:07:28;21.00;99.90
18337;DHT22;9294;51.106;7.028;2023-11-21T07:09:55;21.10;99.90
18337;DHT22;9294;51.106;7.028;2023-11-21T07:12:21;21.10;99.90
18337;DHT22;9294;51.106;7.028;2023-11-21T07:14:49;21.10;99.90
18337;DHT22;9294;51.106;7.028;2023-11-21T07:17:17;21.10;99.90
18337;DHT22;9294;51.106;7.028;2023-11-21T07:19:43;21.10;99.90
18337;DHT22;9294;51.106;7.028;2023-11-21T07:22:10;21.00;99.90
18337;DHT22;9294;51.106;7.028;2023-11-21T07:24:39;21.00;99.90
18337;DHT22;9294;51.106;7.028;2023-11-21T07:27:06;20.90;99.90
18337;DHT22;9294;51.106;7.028;2023-11-21T07:29:32;20.90;99.90
18337;DHT22;9294;51.106;7.028;2023-11-21T07:31:59;20.90;99.90
18337;DHT22;9294;51.106;7.028;2023-11-21T07:34:27;20.90;99.90
18337;DHT22;9294;51.106;7.028;2023-11-21T07:36:54;21.00;99.90
18337;DHT22;9294;51.106;7.028;2023-11-21T07:39:21;21.00;99.90
18337;DHT22;9294;51.106;7.028;2023-11-21T07:41:47;20.90;99.90
18337;DHT22;9294;51.106;7.028;2023-11-21T07:44:16;20.90;99.90
18337;DHT22;9294;51.106;7.028;2023-11-21T07:46:43;20.90;99.90
18337;DHT22;9294;51.106;7.028;2023-11-21T07:49:10;20.90;99.90
18337;DHT22;9294;51.106;7.028;2023-11-21T07:51:38;20.90;99.90
18337;DHT22;9294;51.106;7.028;2023-11-21T07:54:05;21.00;99.90
18337;DHT22;9294;51.106;7.028;2023-11-21T07:56:32;21.00;99.90
18337;DHT22;9294;51.106;7.028;2023-11-21T07:58:58;21.00;99.90
18337;DHT22;9294;51.106;7.028;2023-11-21T08:01:25;21.00;99.90
18337;DHT22;9294;51.106;7.028;2023-11-21T08:03:53;21.00;99.90
18337;DHT22;9294;51.106;7.028;2023-11-21T08:06:22;21.00;99.90
18337;DHT22;9294;51.106;7.028;2023-11-21T08:08:50;21.10;99.90
18337;DHT22;9294;51.106;7.028;2023-11-21T08:11:17;21.10;99.90
18337;DHT22;9294;51.106;7.028;2023-11-21T08:13:45;21.10;99.90
18337;DHT22;9294;51.106;7.028;2023-11-21T08:16:12;21.10;99.90
18337;DHT22;9294;51.106;7.028;2023-11-21T08:18:38;21.10;99.70
18337;DHT22;9294;51.106;7.028;2023-11-21T08:21:05;21.10;99.40
18337;DHT22;9294;51.106;7.028;2023-11-21T08:23:33;21.10;99.80
18337;DHT22;9294;51.106;7.028;2023-11-21T08:26:01;21.10;99.90
18337;DHT22;9294;51.106;7.028;2023-11-21T08:28:28;21.10;99.80
18337;DHT22;9294;51.106;7.028;2023-11-21T08:30:55;21.10;99.90
18337;DHT22;9294;51.106;7.028;2023-11-21T08:33:22;21.10;99.90
18337;DHT22;9294;51.106;7.028;2023-11-21T08:35:49;21.10;99.90
18337;DHT22;9294;51.106;7.028;2023-11-21T08:38:15;21.10;99.90
18337;DHT22;9294;51.106;7.028;2023-11-21T08:40:43;21.10;99.90
18337;DHT22;9294;51.106;7.028;2023-11-21T08:43:11;21.10;99.90
18337;DHT22;9294;51.106;7.028;2023-11-21T08:45:39;21.10;99.90
18337;DHT22;9294;51.106;7.028;2023-11-21T08:48:06;21.00;99.90
18337;DHT22;9294;51.106;7.028;2023-11-21T08:50:32;21.10;99.90
18337;DHT22;9294;51.106;7.028;2023-11-21T08:52:59;21.00;99.90
18337;DHT22;9294;51.106;7.028;2023-11-21T08:55:26;21.00;99.90
18337;DHT22;9294;51.106;7.028;2023-11-21T08:57:54;21.00;99.90
18337;DHT22;9294;51.106;7.028;2023-11-21T09:00:22;21.00;99.90
18337;DHT22;9294;51.106;7.028;2023-11-21T09:02:49;20.90;99.90
18337;DHT22;9294;51.106;7.028;2023-11-21T09:05:15;20.90;99.90
18337;DHT22;9294;51.106;7.028;2023-11-21T09:07:43;20.90;99.90
18337;DHT22;9294;51.106;7.028;2023-11-21T09:10:12;20.90;99.90
18337;DHT22;9294;51.106;7.028;2023-11-21T09:12:40;20.90;99.90
18337;DHT22;9294;51.106;7.028;2023-11-21T09:15:09;20.90;99.90
18337;DHT22;9294;51.106;7.028;2023-11-21T09:17:38;20.80;99.90
18337;DHT22;9294;51.106;7.028;2023-11-21T09:20:07;20.80;99.90
18337;DHT22;9294;51.106;7.028;2023-11-21T09:22:35;20.80;99.90
18337;DHT22;9294;51.106;7.028;2023-11-21T09:25:02;20.80;99.90
18337;DHT22;9294;51.106;7.028;2023-11-21T09:27:30;20.80;99.90
18337;DHT22;9294;51.106;7.028;2023-11-21T09:29:57;20.80;99.90
18337;DHT22;9294;51.106;7.028;2023-11-21T09:32:24;20.80;99.90
18337;DHT22;9294;51.106;7.028;2023-11-21T09:34:52;20.70;99.90
18337;DHT22;9294;51.106;7.028;2023-11-21T09:37:20;20.70;99.90
18337;DHT22;9294;51.106;7.028;2023-11-21T09:39:47;20.80;99.90
18337;DHT22;9294;51.106;7.028;2023-11-21T09:42:17;20.80;99.90
18337;DHT22;9294;51.106;7.028;2023-11-21T09:44:51;20.80;99.90
18337;DHT22;9294;51.106;7.028;2023-11-21T09:47:21;20.80;99.90
18337;DHT22;9294;51.106;7.028;2023-11-21T09:49:49;20.80;99.90
18337;DHT22;9294;51.106;7.028;2023-11-21T09:52:22;20.80;99.90
18337;DHT22;9294;51.106;7.028;2023-11-21T09:54:51;20.80;99.90
18337;DHT22;9294;51.106;7.028;2023-11-21T09:57:19;20.90;99.90
18337;DHT22;9294;51.106;7.028;2023-11-21T09:59:47;20.90;99.90
18337;DHT22;9294;51.106;7.028;2023-11-21T10:02:17;20.90;99.90
18337;DHT22;9294;51.106;7.028;2023-11-21T10:04:44;20.90;99.90
18337;DHT22;9294;51.106;7.028;2023-11-21T10:07:11;20.90;99.90
18337;DHT22;9294;51.106;7.028;2023-11-21T10:09:42;20.90;99.90
18337;DHT22;9294;51.106;7.028;2023-11-21T10:12:10;20.90;99.90
18337;DHT22;9294;51.106;7.028;2023-11-21T10:14:41;20.90;99.90
18337;DHT22;9294;51.106;7.028;2023-11-21T10:17:10;20.90;99.90
18337;DHT22;9294;51.106;7.028;2023-11-21T10:19:38;20.90;99.90
18337;DHT22;9294;51.106;7.028;2023-11-21T10:22:05;20.90;99.90
18337;DHT22;9294;51.106;7.028;2023-11-21T10:24:34;20.90;99.90
18337;DHT22;9294;51.106;7.028;2023-11-21T10:27:04;20.90;99.90
18337;DHT22;9294;51.106;7.028;2023-11-21T10:29:30;20.90;99.90
18337;DHT22;9294;51.106;7.028;2023-11-21T10:32:01;20.90;99.90
18337;DHT22;9294;51.106;7.028;2023-11-21T10:34:28;20.90;99.90
18337;DHT22;9294;51.106;7.028;2023-11-21T10:36:55;20.90;99.90
18337;DHT22;9294;51.106;7.028;2023-11-21T10:39:24;20.90;99.90
18337;DHT22;9294;51.106;7.028;2023-11-21T10:41:55;20.80;99.90
18337;DHT22;9294;51.106;7.028;2023-11-21T10:44:23;20.80;99.90
18337;DHT22;9294;51.106;7.028;2023-11-21T10:46:52;20.80;99.90
18337;DHT22;9294;51.106;7.028;2023-11-21T10:49:22;20.80;99.90
18337;DHT22;9294;51.106;7.028;2023-11-21T10:51:50;20.80;99.90
18337;DHT22;9294;51.106;7.028;2023-11-21T10:54:19;20.80;99.90
18337;DHT22;9294;51.106;7.028;2023-11-21T10:56:47;20.80;99.90
18337;DHT22;9294;51.106;7.028;2023-11-21T10:59:16;20.70;99.90
18337;DHT22;9294;51.106;7.028;2023-11-21T11:01:45;20.80;99.90
18337;DHT22;9294;51.106;7.028;2023-11-21T11:04:12;20.80;99.90
18337;DHT22;9294;51.106;7.028;2023-11-21T11:06:43;20.80;99.90
18337;DHT22;9294;51.106;7.028;2023-11-21T11:09:13;20.80;99.90
18337;DHT22;9294;51.106;7.028;2023-11-21T11:11:40;20.80;99.90
18337;DHT22;9294;51.106;7.028;2023-11-21T11:14:11;20.80;99.90
18337;DHT22;9294;51.106;7.028;2023-11-21T11:16:39;20.80;99.90
18337;DHT22;9294;51.106;7.028;2023-11-21T11:19:08;20.80;99.90
18337;DHT22;9294;51.106;7.028;2023-11-21T11:21:43;20.80;99.90
18337;DHT22;9294;51.106;7.028;2023-11-21T11:24:36;20.80;99.90
18337;DHT22;9294;51.106;7.028;2023-11-21T11:27:11;20.80;99.90
18337;DHT22;9294;51.106;7.028;2023-11-21T11:29:47;20.90;99.90
18337;DHT22;9294;51.106;7.028;2023-11-21T11:32:25;20.90;99.90
18337;DHT22;9294;51.106;7.028;2023-11-21T11:35:00;20.90;99.90
18337;DHT22;9294;51.106;7.028;2023-11-21T11:37:28;20.90;99.90
18337;DHT22;9294;51.106;7.028;2023-11-21T11:39:55;20.90;99.90
18337;DHT22;9294;51.106;7.028;2023-11-21T11:42:22;20.90;99.90
18337;DHT22;9294;51.106;7.028;2023-11-21T11:44:51;20.90;99.90
18337;DHT22;9294;51.106;7.028;2023-11-21T11:47:28;20.90;99.90
18337;DHT22;9294;51.106;7.028;2023-11-21T11:50:04;20.90;99.90
18337;DHT22;9294;51.106;7.028;2023-11-21T11:52:40;20.90;99.90
18337;DHT22;9294;51.106;7.028;2023-11-21T11:55:08;20.90;99.90
18337;DHT22;9294;51.106;7.028;2023-11-21T11:57:37;20.90;99.90
18337;DHT22;9294;51.106;7.028;2023-11-21T12:00:12;20.90;99.90
18337;DHT22;9294;51.106;7.028;2023-11-21T12:02:42;20.90;99.90
18337;DHT22;9294;51.106;7.028;2023-11-21T12:05:11;20.80;99.90
18337;DHT22;9294;51.106;7.028;2023-11-21T12:07:45;20.90;99.90
18337;DHT22;9294;51.106;7.028;2023-11-21T12:10:14;20.90;99.90
18337;DHT22;9294;51.106;7.028;2023-11-21T12:12:44;20.80;99.90
18337;DHT22;9294;51.106;7.028;2023-11-21T12:15:11;20.80;99.90
18337;DHT22;9294;51.106;7.028;2023-11-21T12:17:38;20.80;99.90
18337;DHT22;9294;51.106;7.028;2023-11-21T12:20:06;20.80;99.90
18337;DHT22;9294;51.106;7.028;2023-11-21T12:22:42;20.90;99.90
18337;DHT22;9294;51.106;7.028;2023-11-21T12:25:09;20.80;99.90
18337;DHT22;9294;51.106;7.028;2023-11-21T12:27:42;20.80;99.90
18337;DHT22;9294;51.106;7.028;2023-11-21T12:30:09;20.80;99.90
18337;DHT22;9294;51.106;7.028;2023-11-21T12:32:39;20.90;99.90
18337;DHT22;9294;51.106;7.028;2023-11-21T12:35:06;20.90;99.90
18337;DHT22;9294;51.106;7.028;2023-11-21T12:37:33;20.90;99.90
18337;DHT22;9294;51.106;7.028;2023-11-21T12:40:01;20.90;99.90
18337;DHT22;9294;51.106;7.028;2023-11-21T12:42:28;20.90;99.90
18337;DHT22;9294;51.106;7.028;2023-11-21T12:45:10;21.00;99.90
18337;DHT22;9294;51.106;7.028;2023-11-21T12:47:41;21.00;99.90
18337;DHT22;9294;51.106;7.028;2023-11-21T12:50:09;21.00;99.90
18337;DHT22;9294;51.106;7.028;2023-11-21T12:52:41;21.00;99.90
18337;DHT22;9294;51.106;7.028;2023-11-21T12:55:13;21.00;99.90
18337;DHT22;9294;51.106;7.028;2023-11-21T12:57:42;21.10;99.90
18337;DHT22;9294;51.106;7.028;2023-11-21T13:00:10;21.10;99.90
18337;DHT22;9294;51.106;7.028;2023-11-21T13:02:41;21.10;99.90
18337;DHT22;9294;51.106;7.028;2023-11-21T13:05:08;21.10;99.90
18337;DHT22;9294;51.106;7.028;2023-11-21T13:07:44;21.20;99.90
18337;DHT22;9294;51.106;7.028;2023-11-21T13:10:13;21.20;99.90
18337;DHT22;9294;51.106;7.028;2023-11-21T13:12:43;21.10;99.90
18337;DHT22;9294;51.106;7.028;2023-11-21T13:15:13;21.20;99.90
18337;DHT22;9294;51.106;7.028;2023-11-21T13:17:43;21.20;99.90
18337;DHT22;9294;51.106;7.028;2023-11-21T13:20:10;21.10;99.90
18337;DHT22;9294;51.106;7.028;2023-11-21T13:22:45;21.10;99.90
18337;DHT22;9294;51.106;7.028;2023-11-21T13:25:13;21.10;99.90
18337;DHT22;9294;51.106;7.028;2023-11-21T13:27:43;21.10;99.90
18337;DHT22;9294;51.106;7.028;2023-11-21T13:30:12;21.10;99.90
18337;DHT22;9294;51.106;7.028;2023-11-21T13:32:40;21.10;99.90
18337;DHT22;9294;51.106;7.028;2023-11-21T13:35:07;21.10;99.90
18337;DHT22;9294;51.106;7.028;2023-11-21T13:37:40;21.10;99.90
18337;DHT22;9294;51.106;7.028;2023-11-21T13:40:08;21.10;99.90
18337;DHT22;9294;51.106;7.028;2023-11-21T13:42:41;21.00;99.90
18337;DHT22;9294;51.106;7.028;2023-11-21T13:45:09;21.00;99.90
18337;DHT22;9294;51.106;7.028;2023-11-21T13:47:37;21.00;99.90
18337;DHT22;9294;51.106;7.028;2023-11-21T13:50:06;21.00;99.90
18337;DHT22;9294;51.106;7.028;2023-11-21T13:52:42;21.00;99.90
18337;DHT22;9294;51.106;7.028;2023-11-21T13:55:10;21.00;99.90
18337;DHT22;9294;51.106;7.028;2023-11-21T13:57:42;21.00;99.90
18337;DHT22;9294;51.106;7.028;2023-11-21T14:00:13;21.00;99.90
18337;DHT22;9294;51.106;7.028;2023-11-21T14:03:01;21.00;99.90
18337;DHT22;9294;51.106;7.028;2023-11-21T14:05:30;21.00;99.90
18337;DHT22;9294;51.106;7.028;2023-11-21T14:07:59;20.90;99.90
18337;DHT22;9294;51.106;7.028;2023-11-21T14:10:30;20.90;99.90
18337;DHT22;9294;51.106;7.028;2023-11-21T14:13:06;20.90;99.90
18337;DHT22;9294;51.106;7.028;2023-11-21T14:15:33;20.90;99.90
18337;DHT22;9294;51.106;7.028;2023-11-21T14:18:03;20.90;99.90
18337;DHT22;9294;51.106;7.028;2023-11-21T14:20:33;20.90;99.90
18337;DHT22;9294;51.106;7.028;2023-11-21T14:23:01;20.90;99.90
18337;DHT22;9294;51.106;7.028;2023-11-21T14:25:28;20.90;99.90
18337;DHT22;9294;51.106;7.028;2023-11-21T14:27:55;20.90;99.90
18337;DHT22;9294;51.106;7.028;2023-11-21T14:30:23;20.90;99.90
18337;DHT22;9294;51.106;7.028;2023-11-21T14:32:51;21.00;99.90
18337;DHT22;9294;51.106;7.028;2023-11-21T14:35:18;21.00;99.90
18337;DHT22;9294;51.106;7.028;2023-11-21T14:37:45;20.90;99.90
18337;DHT22;9294;51.106;7.028;2023-11-21T14:40:12;21.00;99.90
18337;DHT22;9294;51.106;7.028;2023-11-21T14:42:41;21.00;99.90
18337;DHT22;9294;51.106;7.028;2023-11-21T14:45:09;21.00;99.80
18337;DHT22;9294;51.106;7.028;2023-11-21T14:47:39;21.00;99.90
18337;DHT22;9294;51.106;7.028;2023-11-21T14:50:12;21.00;99.70
18337;DHT22;9294;51.106;7.028;2023-11-21T14:52:52;21.00;99.70
18337;DHT22;9294;51.106;7.028;2023-11-21T14:55:24;21.00;99.60
18337;DHT22;9294;51.106;7.028;2023-11-21T14:57:57;21.00;99.60
18337;DHT22;9294;51.106;7.028;2023-11-21T15:00:27;21.10;99.50
18337;DHT22;9294;51.106;7.028;2023-11-21T15:03:07;21.00;99.40
18337;DHT22;9294;51.106;7.028;2023-11-21T15:05:35;21.00;99.40
18337;DHT22;9294;51.106;7.028;2023-11-21T15:08:01;21.00;99.40
18337;DHT22;9294;51.106;7.028;2023-11-21T15:10:47;21.00;99.40
18337;DHT22;9294;51.106;7.028;2023-11-21T15:13:15;21.00;99.40
18337;DHT22;9294;51.106;7.028;2023-11-21T15:15:42;21.00;99.30
18337;DHT22;9294;51.106;7.028;2023-11-21T15:18:09;21.00;99.40
18337;DHT22;9294;51.106;7.028;2023-11-21T15:20:37;21.00;99.30
18337;DHT22;9294;51.106;7.028;2023-11-21T15:23:04;21.00;99.30
18337;DHT22;9294;51.106;7.028;2023-11-21T15:25:31;21.00;99.40
18337;DHT22;9294;51.106;7.028;2023-11-21T15:27:59;20.90;99.30
18337;DHT22;9294;51.106;7.028;2023-11-21T15:30:26;20.90;99.30
18337;DHT22;9294;51.106;7.028;2023-11-21T15:32:53;20.90;99.30
18337;DHT22;9294;51.106;7.028;2023-11-21T15:35:21;20.90;99.30
18337;DHT22;9294;51.106;7.028;2023-11-21T15:37:48;20.90;99.30
18337;DHT22;9294;51.106;7.028;2023-11-21T15:40:15;20.90;99.30
18337;DHT22;9294;51.106;7.028;2023-11-21T15:42:42;20.90;99.80
18337;DHT22;9294;51.106;7.028;2023-11-21T15:45:11;20.90;99.90
18337;DHT22;9294;51.106;7.028;2023-11-21T15:47:37;20.90;99.90
18337;DHT22;9294;51.106;7.028;2023-11-21T15:50:05;20.90;99.90
18337;DHT22;9294;51.106;7.028;2023-11-21T15:52:37;20.90;99.90